createdAt,value
2023-05-28T00:00:07.458Z,3.60
2023-05-28T00:02:39.180Z,3.35
2023-05-28T00:05:06.323Z,3.53
2023-05-28T00:07:32.976Z,3.78
2023-05-28T00:09:59.488Z,3.30
2023-05-28T00:12:26.546Z,3.72
2023-05-28T00:14:53.642Z,3.60
2023-05-28T00:17:20.305Z,3.55
2023-05-28T00:19:46.761Z,3.15
2023-05-28T00:22:13.646Z,3.53
2023-05-28T00:24:40.352Z,3.13
2023-05-28T00:27:09.480Z,3.28
2023-05-28T00:29:36.040Z,3.45
2023-05-28T00:32:02.952Z,4.38
2023-05-28T00:34:29.809Z,3.63
2023-05-28T00:36:56.442Z,4.13
2023-05-28T00:39:23.216Z,4.50
2023-05-28T00:42:01.755Z,3.88
2023-05-28T00:44:28.708Z,4.00
2023-05-28T00:46:56.607Z,4.28
2023-05-28T00:49:24.327Z,4.93
2023-05-28T00:51:51.113Z,4.85
2023-05-28T00:54:17.730Z,4.35
2023-05-28T00:56:44.307Z,4.75
2023-05-28T00:59:13.389Z,4.07
2023-05-28T01:01:40.727Z,4.43
2023-05-28T01:04:07.377Z,4.70
2023-05-28T01:06:34.189Z,4.57
2023-05-28T01:09:00.941Z,4.55
2023-05-28T01:11:28.011Z,5.30
2023-05-28T01:13:55.530Z,5.47
2023-05-28T01:16:22.609Z,5.28
2023-05-28T01:18:49.771Z,4.85
2023-05-28T01:21:17.495Z,4.43
2023-05-28T01:23:48.577Z,4.32
2023-05-28T01:26:16.910Z,5.20
2023-05-28T01:28:47.473Z,4.63
2023-05-28T01:31:15.607Z,4.88
2023-05-28T01:33:43.755Z,5.10
2023-05-28T01:36:25.138Z,4.32
2023-05-28T01:38:54.014Z,4.95
2023-05-28T01:41:21.309Z,4.97
2023-05-28T01:43:48.528Z,5.03
2023-05-28T01:46:15.995Z,5.10
2023-05-28T01:48:43.010Z,5.13
2023-05-28T01:51:11.211Z,4.68
2023-05-28T01:53:37.755Z,4.53
2023-05-28T01:56:04.714Z,5.55
2023-05-28T01:58:31.640Z,4.55
2023-05-28T02:01:12.943Z,4.55
2023-05-28T02:03:39.564Z,5.13
2023-05-28T02:06:06.222Z,4.25
2023-05-28T02:08:32.755Z,5.32
2023-05-28T02:11:01.010Z,4.28
2023-05-28T02:13:28.825Z,5.38
2023-05-28T02:15:56.800Z,6.18
2023-05-28T02:18:23.595Z,5.10
2023-05-28T02:20:51.319Z,4.78
2023-05-28T02:23:17.907Z,4.90
2023-05-28T02:25:47.139Z,4.65
2023-05-28T02:28:13.659Z,4.75
2023-05-28T02:30:40.443Z,5.18
2023-05-28T02:33:08.125Z,4.72
2023-05-28T02:35:34.612Z,4.47
2023-05-28T02:38:01.079Z,4.55
2023-05-28T02:40:27.674Z,3.92
2023-05-28T02:42:54.189Z,4.80
2023-05-28T02:45:20.686Z,4.13
2023-05-28T02:47:47.273Z,3.97
2023-05-28T02:50:14.087Z,5.07
2023-05-28T02:52:53.749Z,3.85
2023-05-28T02:55:20.342Z,4.55
2023-05-28T02:57:47.529Z,4.40
2023-05-28T03:00:14.823Z,4.57
2023-05-28T03:02:42.099Z,4.40
2023-05-28T03:05:08.847Z,4.53
2023-05-28T03:07:35.538Z,4.13
2023-05-28T03:10:02.585Z,4.20
2023-05-28T03:12:33.150Z,3.80
2023-05-28T03:14:59.663Z,4.70
2023-05-28T03:17:26.340Z,4.70
2023-05-28T03:19:52.819Z,4.22
2023-05-28T03:22:21.692Z,3.95
2023-05-28T03:24:48.375Z,4.40
2023-05-28T03:27:17.619Z,4.30
2023-05-28T03:29:44.662Z,4.03
2023-05-28T03:32:18.553Z,4.72
2023-05-28T03:34:45.118Z,4.25
2023-05-28T03:37:11.861Z,4.45
2023-05-28T03:39:40.511Z,4.38
2023-05-28T03:42:08.588Z,3.95
2023-05-28T03:44:35.865Z,4.30
2023-05-28T03:47:03.367Z,3.60
2023-05-28T03:49:30.149Z,3.78
2023-05-28T03:51:58.014Z,3.90
2023-05-28T03:54:26.203Z,4.80
2023-05-28T03:56:52.657Z,4.75
2023-05-28T03:59:21.106Z,4.15
2023-05-28T04:01:48.122Z,4.65
2023-05-28T04:04:14.773Z,3.38
2023-05-28T04:06:41.374Z,4.60
2023-05-28T04:09:08.325Z,4.00
2023-05-28T04:11:36.117Z,4.50
2023-05-28T04:14:02.793Z,4.20
2023-05-28T04:16:29.337Z,4.32
2023-05-28T04:18:56.149Z,4.18
2023-05-28T04:21:23.312Z,4.07
2023-05-28T04:23:50.075Z,4.43
2023-05-28T04:26:17.304Z,4.05
2023-05-28T04:28:43.828Z,4.43
2023-05-28T04:31:10.961Z,4.43
2023-05-28T04:33:37.585Z,4.60
2023-05-28T04:36:04.771Z,4.07
2023-05-28T04:38:34.238Z,4.75
2023-05-28T04:41:01.216Z,4.43
2023-05-28T04:43:30.619Z,4.47
2023-05-28T04:45:59.938Z,4.38
2023-05-28T04:48:27.051Z,4.05
2023-05-28T04:50:54.883Z,4.03
2023-05-28T04:53:21.600Z,4.38
2023-05-28T04:55:48.173Z,4.50
2023-05-28T04:58:15.126Z,4.45
2023-05-28T05:00:41.624Z,4.50
2023-05-28T05:03:09.640Z,4.10
2023-05-28T05:05:36.198Z,4.03
2023-05-28T05:08:02.963Z,4.15
2023-05-28T05:10:29.639Z,4.43
2023-05-28T05:12:56.585Z,4.72
2023-05-28T05:25:09.135Z,3.85
2023-05-28T05:27:37.600Z,4.30
2023-05-28T05:30:06.406Z,4.03
2023-05-28T05:32:33.258Z,4.45
2023-05-28T05:34:59.780Z,4.20
2023-05-28T05:37:26.510Z,4.88
2023-05-28T05:40:28.940Z,4.05
2023-05-28T05:43:15.765Z,4.68
2023-05-28T05:45:42.458Z,4.63
2023-05-28T05:48:10.995Z,4.10
2023-05-28T05:50:56.861Z,4.15
2023-05-28T05:53:24.382Z,4.22
2023-05-28T05:55:51.821Z,3.92
2023-05-28T05:58:18.946Z,3.42
2023-05-28T06:00:46.297Z,3.72
2023-05-28T06:03:13.377Z,3.17
2023-05-28T06:05:59.151Z,3.50
2023-05-28T06:08:49.667Z,3.55
2023-05-28T06:11:24.424Z,4.55
2023-05-28T06:13:51.770Z,3.65
2023-05-28T06:16:19.033Z,4.38
2023-05-28T06:18:45.692Z,4.10
2023-05-28T06:21:12.287Z,3.92
2023-05-28T06:23:38.833Z,3.33
2023-05-28T06:26:06.538Z,4.15
2023-05-28T06:28:33.095Z,3.75
2023-05-28T06:31:00.220Z,4.18
2023-05-28T06:33:26.863Z,4.10
2023-05-28T06:35:53.711Z,3.92
2023-05-28T06:38:20.616Z,3.28
2023-05-28T06:40:47.306Z,4.13
2023-05-28T06:43:14.006Z,3.88
2023-05-28T06:45:58.518Z,3.78
2023-05-28T06:48:25.051Z,3.70
2023-05-28T06:50:51.601Z,3.70
2023-05-28T06:53:18.214Z,3.53
2023-05-28T06:55:45.511Z,3.40
2023-05-28T06:58:24.179Z,3.65
2023-05-28T07:01:09.074Z,3.88
2023-05-28T07:03:49.621Z,4.03
2023-05-28T07:06:20.333Z,3.87
2023-05-28T07:08:47.532Z,3.47
2023-05-28T07:11:15.325Z,3.60
2023-05-28T07:13:46.327Z,4.18
2023-05-28T07:16:12.988Z,4.00
2023-05-28T07:18:40.344Z,3.80
2023-05-28T07:21:06.888Z,3.67
2023-05-28T07:23:39.016Z,3.75
2023-05-28T07:26:06.301Z,3.85
2023-05-28T07:28:32.860Z,4.03
2023-05-28T07:30:59.302Z,3.92
2023-05-28T07:33:26.050Z,4.05
2023-05-28T07:35:53.413Z,3.95
2023-05-28T07:38:20.124Z,3.40
2023-05-28T07:40:51.179Z,4.65
2023-05-28T07:43:31.919Z,3.55
2023-05-28T07:46:03.993Z,3.58
2023-05-28T07:48:37.875Z,3.80
2023-05-28T07:51:18.212Z,4.68
2023-05-28T07:53:49.334Z,3.80
2023-05-28T07:56:21.897Z,3.88
2023-05-28T07:58:48.552Z,4.15
2023-05-28T08:01:18.065Z,3.60
2023-05-28T08:03:44.877Z,3.50
2023-05-28T08:06:12.690Z,4.15
2023-05-28T08:08:39.508Z,3.63
2023-05-28T08:11:08.106Z,4.15
2023-05-28T08:13:34.622Z,3.65
2023-05-28T08:16:05.821Z,4.72
2023-05-28T08:18:48.188Z,4.05
2023-05-28T08:21:15.292Z,4.05
2023-05-28T08:23:42.339Z,3.72
2023-05-28T08:26:10.063Z,4.28
2023-05-28T08:28:38.102Z,4.68
2023-05-28T08:31:05.093Z,3.63
2023-05-28T08:33:54.714Z,5.03
2023-05-28T08:36:21.577Z,3.80
2023-05-28T08:38:50.220Z,5.47
2023-05-28T08:41:20.302Z,3.63
2023-05-28T08:43:46.998Z,4.43
2023-05-28T08:46:14.030Z,3.95
2023-05-28T08:48:59.256Z,3.33
2023-05-28T08:51:28.602Z,4.05
2023-05-28T08:53:56.762Z,3.70
2023-05-28T08:56:29.240Z,3.33
2023-05-28T08:58:56.373Z,3.97
2023-05-28T09:01:23.715Z,3.38
2023-05-28T09:04:05.781Z,3.42
2023-05-28T09:06:39.302Z,3.97
2023-05-28T09:09:11.898Z,3.65
2023-05-28T09:11:44.032Z,3.30
2023-05-28T09:14:12.853Z,3.97
2023-05-28T09:16:43.909Z,3.72
2023-05-28T09:19:18.371Z,3.85
2023-05-28T09:21:56.867Z,3.53
2023-05-28T09:24:26.939Z,3.70
2023-05-28T09:27:12.395Z,3.40
2023-05-28T09:29:40.363Z,3.53
2023-05-28T09:32:06.877Z,3.53
2023-05-28T09:34:34.601Z,3.50
2023-05-28T09:37:01.214Z,3.40
2023-05-28T09:39:28.601Z,3.40
2023-05-28T09:42:10.256Z,2.95
2023-05-28T09:44:40.274Z,3.90
2023-05-28T09:47:17.621Z,3.60
2023-05-28T09:49:48.493Z,3.30
2023-05-28T09:52:22.234Z,3.28
2023-05-28T09:54:52.943Z,3.05
2023-05-28T09:57:28.541Z,3.97
2023-05-28T09:59:56.662Z,3.00
2023-05-28T10:02:43.193Z,2.97
2023-05-28T10:05:12.012Z,3.75
2023-05-28T10:07:41.538Z,3.70
2023-05-28T10:10:11.319Z,3.65
2023-05-28T10:12:41.093Z,3.63
2023-05-28T10:15:08.508Z,3.65
2023-05-28T10:17:36.949Z,4.00
2023-05-28T10:20:06.034Z,3.47
2023-05-28T10:22:33.339Z,3.33
2023-05-28T10:25:01.765Z,3.30
2023-05-28T10:27:34.770Z,3.15
2023-05-28T10:30:04.871Z,3.03
2023-05-28T10:32:39.290Z,4.00
2023-05-28T10:35:06.367Z,3.65
2023-05-28T10:37:32.946Z,3.70
2023-05-28T10:40:00.435Z,3.10
2023-05-28T10:42:27.170Z,3.47
2023-05-28T10:45:07.707Z,4.45
2023-05-28T10:47:35.849Z,3.43
2023-05-28T10:50:18.300Z,3.42
2023-05-28T10:53:08.573Z,2.85
2023-05-28T10:55:55.474Z,3.72
2023-05-28T10:58:29.569Z,3.35
2023-05-28T11:01:19.897Z,3.25
2023-05-28T11:03:54.192Z,3.80
2023-05-28T11:06:21.336Z,2.88
2023-05-28T11:08:49.419Z,3.28
2023-05-28T11:11:18.427Z,3.13
2023-05-28T11:13:47.162Z,3.20
2023-05-28T11:16:16.511Z,4.00
2023-05-28T11:19:02.972Z,3.47
2023-05-28T11:21:29.612Z,4.20
2023-05-28T11:24:01.158Z,3.42
2023-05-28T11:26:28.491Z,2.88
2023-05-28T11:28:55.360Z,2.83
2023-05-28T11:31:22.323Z,3.13
2023-05-28T11:33:51.808Z,2.72
2023-05-28T11:36:20.782Z,2.97
2023-05-28T11:38:47.968Z,2.85
2023-05-28T11:41:14.485Z,3.55
2023-05-28T11:43:41.052Z,3.85
2023-05-28T11:46:07.725Z,2.85
2023-05-28T11:48:38.966Z,3.40
2023-05-28T11:51:06.489Z,3.17
2023-05-28T11:53:43.536Z,3.33
2023-05-28T11:56:11.222Z,3.80
2023-05-28T11:58:41.383Z,3.60
2023-05-28T12:01:08.353Z,3.80
2023-05-28T12:03:36.027Z,3.72
2023-05-28T12:06:02.880Z,4.10
2023-05-28T12:08:29.499Z,3.70
2023-05-28T12:11:07.245Z,3.47
2023-05-28T12:13:39.008Z,4.57
2023-05-28T12:16:11.079Z,4.38
2023-05-28T12:18:44.235Z,4.10
2023-05-28T12:21:12.569Z,3.45
2023-05-28T12:23:39.085Z,3.38
2023-05-28T12:26:10.103Z,3.80
2023-05-28T12:28:40.758Z,4.15
2023-05-28T12:31:08.553Z,3.75
2023-05-28T12:33:35.626Z,4.03
2023-05-28T12:36:02.270Z,4.00
2023-05-28T12:38:29.088Z,3.92
2023-05-28T12:40:56.104Z,3.20
2023-05-28T12:43:23.035Z,3.33
2023-05-28T12:45:49.649Z,3.70
2023-05-28T12:48:16.469Z,3.47
2023-05-28T12:50:43.041Z,3.90
2023-05-28T12:53:09.659Z,3.28
2023-05-28T12:55:36.299Z,3.55
2023-05-28T12:58:03.101Z,3.60
2023-05-28T13:00:29.922Z,3.78
2023-05-28T13:02:56.498Z,3.80
2023-05-28T13:05:23.449Z,3.30
2023-05-28T13:07:50.093Z,3.78
2023-05-28T13:10:16.758Z,2.97
2023-05-28T13:12:43.266Z,3.35
2023-05-28T13:15:10.192Z,3.30
2023-05-28T13:17:36.793Z,3.45
2023-05-28T13:20:07.613Z,3.58
2023-05-28T13:22:36.627Z,3.05
2023-05-28T13:25:04.197Z,4.00
2023-05-28T13:27:31.475Z,3.70
2023-05-28T13:29:58.594Z,3.70
2023-05-28T13:32:25.966Z,3.58
2023-05-28T13:34:52.999Z,3.00
2023-05-28T13:37:19.632Z,3.67
2023-05-28T13:39:47.285Z,4.03
2023-05-28T13:42:14.216Z,3.65
2023-05-28T13:44:41.216Z,3.40
2023-05-28T13:47:08.278Z,2.90
2023-05-28T13:49:34.877Z,3.38
2023-05-28T13:52:01.526Z,3.40
2023-05-28T13:54:28.128Z,3.22
2023-05-28T13:56:54.650Z,3.22
2023-05-28T13:59:21.178Z,3.55
2023-05-28T14:01:47.983Z,2.78
2023-05-28T14:04:14.671Z,3.28
2023-05-28T14:06:41.170Z,3.92
2023-05-28T14:09:07.678Z,3.42
2023-05-28T14:11:58.467Z,3.40
2023-05-28T14:14:20.629Z,3.53
2023-05-28T14:16:47.243Z,3.95
2023-05-28T14:19:13.750Z,3.33
2023-05-28T14:21:41.139Z,3.05
2023-05-28T14:24:07.752Z,3.78
2023-05-28T14:26:34.262Z,3.30
2023-05-28T14:29:00.790Z,3.55
2023-05-28T14:31:27.701Z,3.70
2023-05-28T14:33:54.363Z,3.50
2023-05-28T14:36:21.276Z,3.50
2023-05-28T14:38:48.040Z,3.60
2023-05-28T14:41:14.569Z,3.22
2023-05-28T14:43:41.093Z,3.20
2023-05-28T14:46:07.660Z,3.25
2023-05-28T14:48:34.257Z,3.67
2023-05-28T14:51:02.497Z,3.40
2023-05-28T14:53:29.385Z,3.22
2023-05-28T14:55:56.051Z,3.72
2023-05-28T14:58:23.948Z,3.10
2023-05-28T15:00:50.455Z,3.10
2023-05-28T15:03:17.164Z,4.00
2023-05-28T15:05:43.845Z,3.80
2023-05-28T15:08:11.420Z,4.20
2023-05-28T15:10:37.938Z,3.83
2023-05-28T15:13:04.778Z,4.00
2023-05-28T15:15:31.289Z,3.25
2023-05-28T15:17:57.798Z,3.45
2023-05-28T15:20:24.450Z,3.20
2023-05-28T15:22:51.053Z,3.95
2023-05-28T15:25:20.630Z,3.58
2023-05-28T15:27:47.553Z,3.40
2023-05-28T15:30:15.456Z,3.05
2023-05-28T15:32:42.461Z,4.50
2023-05-28T15:35:09.758Z,4.05
2023-05-28T15:37:36.491Z,4.10
2023-05-28T15:40:03.749Z,3.63
2023-05-28T15:42:30.466Z,4.15
2023-05-28T15:44:57.157Z,3.47
2023-05-28T15:47:23.727Z,3.50
2023-05-28T15:49:50.267Z,4.18
2023-05-28T15:52:16.823Z,3.88
2023-05-28T15:54:43.587Z,3.92
2023-05-28T15:57:10.826Z,3.83
2023-05-28T15:59:43.952Z,4.28
2023-05-28T16:02:14.666Z,3.92
2023-05-28T16:04:41.225Z,4.30
2023-05-28T16:07:08.039Z,3.60
2023-05-28T16:09:35.690Z,3.85
2023-05-28T16:12:03.326Z,4.30
2023-05-28T16:14:35.048Z,4.20
2023-05-28T16:17:02.575Z,3.90
2023-05-28T16:19:29.431Z,4.22
2023-05-28T16:21:56.136Z,4.30
2023-05-28T16:24:22.645Z,4.20
2023-05-28T16:26:51.114Z,3.75
2023-05-28T16:29:21.621Z,4.55
2023-05-28T16:31:48.630Z,4.22
2023-05-28T16:34:16.177Z,4.25
2023-05-28T16:36:43.545Z,4.45
2023-05-28T16:39:10.243Z,4.20
2023-05-28T16:41:36.930Z,4.25
2023-05-28T16:44:03.625Z,4.20
2023-05-28T16:46:30.332Z,4.40
2023-05-28T16:48:57.125Z,4.63
2023-05-28T16:51:23.999Z,4.35
2023-05-28T16:53:51.668Z,4.32
2023-05-28T16:56:18.695Z,4.10
2023-05-28T16:58:45.189Z,4.35
2023-05-28T17:01:12.122Z,4.00
2023-05-28T17:03:38.739Z,4.38
2023-05-28T17:06:05.495Z,4.00
2023-05-28T17:08:32.113Z,3.90
2023-05-28T17:10:58.718Z,4.10
2023-05-28T17:13:25.268Z,4.32
2023-05-28T17:15:51.885Z,4.15
2023-05-28T17:18:18.516Z,3.67
2023-05-28T17:20:45.179Z,4.18
2023-05-28T17:23:11.796Z,4.18
2023-05-28T17:25:38.336Z,4.50
2023-05-28T17:28:04.892Z,4.03
2023-05-28T17:30:31.377Z,4.10
2023-05-28T17:32:57.908Z,4.25
2023-05-28T17:35:24.436Z,3.92
2023-05-28T17:37:51.104Z,4.22
2023-05-28T17:40:17.636Z,3.85
2023-05-28T17:42:44.163Z,4.40
2023-05-28T17:45:11.005Z,4.38
2023-05-28T17:47:37.591Z,3.72
2023-05-28T17:50:04.402Z,4.03
2023-05-28T17:52:31.220Z,3.58
2023-05-28T17:54:57.809Z,3.65
2023-05-28T17:57:24.419Z,3.83
2023-05-28T17:59:51.354Z,3.53
2023-05-28T18:02:17.909Z,4.13
2023-05-28T18:04:44.476Z,3.40
2023-05-28T18:07:10.918Z,3.92
2023-05-28T18:09:37.475Z,3.35
2023-05-28T18:12:04.180Z,3.42
2023-05-28T18:14:31.270Z,3.40
2023-05-28T18:17:02.348Z,3.88
2023-05-28T18:19:29.835Z,3.60
2023-05-28T18:21:56.529Z,3.65
2023-05-28T18:24:23.148Z,3.38
2023-05-28T18:26:49.740Z,3.40
2023-05-28T18:29:16.239Z,3.28
2023-05-28T18:31:44.612Z,3.30
2023-05-28T18:34:11.302Z,3.10
2023-05-28T18:36:38.403Z,3.20
2023-05-28T18:39:05.405Z,3.40
2023-05-28T18:41:31.986Z,2.90
2023-05-28T18:43:58.574Z,4.30
2023-05-28T18:46:25.586Z,3.80
2023-05-28T18:48:52.162Z,3.70
2023-05-28T18:51:18.731Z,3.55
2023-05-28T18:53:45.450Z,4.18
2023-05-28T18:56:11.992Z,3.60
2023-05-28T18:58:38.620Z,4.10
2023-05-28T19:01:05.723Z,4.63
2023-05-28T19:03:32.271Z,3.35
2023-05-28T19:05:58.896Z,3.75
2023-05-28T19:08:25.695Z,3.97
2023-05-28T19:10:52.446Z,3.40
2023-05-28T19:13:19.084Z,3.53
2023-05-28T19:15:46.314Z,4.57
2023-05-28T19:18:13.020Z,4.15
2023-05-28T19:20:40.213Z,3.95
2023-05-28T19:23:07.080Z,3.90
2023-05-28T19:25:33.753Z,4.30
2023-05-28T19:28:00.435Z,3.60
2023-05-28T19:30:27.128Z,3.55
2023-05-28T19:32:53.697Z,3.60
2023-05-28T19:35:20.265Z,4.22
2023-05-28T19:37:50.006Z,3.85
2023-05-28T19:40:16.522Z,4.30
2023-05-28T19:42:43.096Z,4.13
2023-05-28T19:45:10.153Z,3.63
2023-05-28T19:47:37.088Z,3.92
2023-05-28T19:50:05.636Z,3.85
2023-05-28T19:52:32.165Z,3.42
2023-05-28T19:54:59.730Z,3.83
2023-05-28T19:57:26.743Z,4.07
2023-05-28T19:59:55.364Z,3.58
2023-05-28T20:02:27.332Z,3.42
2023-05-28T20:04:54.506Z,3.28
2023-05-28T20:07:21.281Z,3.55
2023-05-28T20:09:47.825Z,4.05
2023-05-28T20:12:14.333Z,3.60
2023-05-28T20:14:40.897Z,3.35
2023-05-28T20:17:09.982Z,3.83
2023-05-28T20:19:40.379Z,4.10
2023-05-28T20:22:07.232Z,4.70
2023-05-28T20:24:36.360Z,3.70
2023-05-28T20:27:03.261Z,4.07
2023-05-28T20:29:35.886Z,4.22
2023-05-28T20:32:05.413Z,5.03
2023-05-28T20:34:32.825Z,4.18
2023-05-28T20:37:01.006Z,4.63
2023-05-28T20:39:29.078Z,4.10
2023-05-28T20:41:56.823Z,4.38
2023-05-28T20:44:23.604Z,4.30
2023-05-28T20:46:52.952Z,4.57
2023-05-28T20:49:19.907Z,4.70
2023-05-28T20:51:46.906Z,4.00
2023-05-28T20:54:13.411Z,4.22
2023-05-28T20:56:41.233Z,4.20
2023-05-28T20:59:08.169Z,4.43
2023-05-28T21:01:35.364Z,4.05
2023-05-28T21:04:02.019Z,3.85
2023-05-28T21:06:29.904Z,4.38
2023-05-28T21:08:56.920Z,4.53
2023-05-28T21:11:24.622Z,4.30
2023-05-28T21:13:53.525Z,4.72
2023-05-28T21:16:20.061Z,4.68
2023-05-28T21:18:46.671Z,4.72
2023-05-28T21:21:13.558Z,4.80
2023-05-28T21:23:40.104Z,4.93
2023-05-28T21:26:06.745Z,4.60
2023-05-28T21:28:33.262Z,4.55
2023-05-28T21:31:01.380Z,5.00
2023-05-28T21:33:28.360Z,5.15
2023-05-28T21:35:56.107Z,5.07
2023-05-28T21:38:26.384Z,5.43
2023-05-28T21:40:53.484Z,5.75
2023-05-28T21:43:23.010Z,4.93
2023-05-28T21:45:49.609Z,4.90
2023-05-28T21:48:17.055Z,4.95
2023-05-28T21:50:44.036Z,5.03
2023-05-28T21:53:13.652Z,5.43
2023-05-28T21:55:41.011Z,5.45
2023-05-28T21:58:07.606Z,5.00
2023-05-28T22:00:34.391Z,5.85
2023-05-28T22:03:01.234Z,5.10
2023-05-28T22:05:27.842Z,5.00
2023-05-28T22:07:54.742Z,4.60
2023-05-28T22:10:21.277Z,6.00
2023-05-28T22:12:50.657Z,4.95
2023-05-28T22:15:17.292Z,4.55
2023-05-28T22:17:43.877Z,4.95
2023-05-28T22:20:11.180Z,4.88
2023-05-28T22:22:39.077Z,5.90
2023-05-28T22:25:08.095Z,3.88
2023-05-28T22:27:35.782Z,4.43
2023-05-28T22:30:03.957Z,4.47
2023-05-28T22:32:31.000Z,4.40
2023-05-28T22:34:57.621Z,4.55
2023-05-28T22:37:24.468Z,4.28
2023-05-28T22:39:50.963Z,3.95
2023-05-28T22:42:17.400Z,5.32
2023-05-28T22:44:43.911Z,4.85
2023-05-28T22:47:10.933Z,4.78
2023-05-28T22:49:37.538Z,5.10
2023-05-28T22:52:04.843Z,4.68
2023-05-28T22:54:32.112Z,4.30
2023-05-28T22:56:58.732Z,4.50
2023-05-28T22:59:25.537Z,4.78
2023-05-28T23:01:52.359Z,4.70
2023-05-28T23:04:18.867Z,4.45
2023-05-28T23:06:45.476Z,4.50
2023-05-28T23:09:12.267Z,4.45
2023-05-28T23:11:42.946Z,4.95
2023-05-28T23:14:10.136Z,4.30
2023-05-28T23:16:36.956Z,4.07
2023-05-28T23:19:03.565Z,5.18
2023-05-28T23:21:30.769Z,4.57
2023-05-28T23:23:57.392Z,4.15
2023-05-28T23:26:23.847Z,4.10
2023-05-28T23:28:52.123Z,4.28
2023-05-28T23:31:19.425Z,4.60
2023-05-28T23:33:46.081Z,4.22
2023-05-28T23:36:12.872Z,4.75
2023-05-28T23:38:39.506Z,4.22
2023-05-28T23:41:06.053Z,4.13
2023-05-28T23:43:32.502Z,4.30
2023-05-28T23:45:59.312Z,3.83
2023-05-28T23:48:26.297Z,4.05
2023-05-28T23:50:52.802Z,4.05
2023-05-28T23:53:19.324Z,4.22
2023-05-28T23:55:45.896Z,4.43
2023-05-28T23:58:12.382Z,3.97
